Time;durP1;ratioP1;P1;durP2;ratioP2;P2;SDS_P1;SDS_P2;PMS_P1;PMS_P2;Temp;Humidity;BMP_temperature;BMP_pressure;BME280_temperature;BME280_humidity;BME280_pressure;Samples;Min_cycle;Max_cycle;Signal;HPM_P1;HPM_P2
2022/07/27 00:00:25;;;;;;;2.37;2.10;;;18.90;54.00;;;;;;5079513;28;20193;-60
2022/07/27 00:02:51;;;;;;;2.00;1.80;;;18.80;54.10;;;;;;5088498;28;20181;-60
2022/07/27 00:05:19;;;;;;;1.67;1.57;;;18.80;54.20;;;;;;5091341;28;20187;-59
2022/07/27 00:07:45;;;;;;;2.27;1.60;;;18.80;53.70;;;;;;5084422;28;20799;-59
2022/07/27 00:10:11;;;;;;;3.20;1.87;;;18.70;54.00;;;;;;5085531;28;20442;-59
2022/07/27 00:12:37;;;;;;;3.20;1.70;;;18.70;54.30;;;;;;5095504;28;20418;-60
2022/07/27 00:15:04;;;;;;;4.23;2.13;;;18.70;54.30;;;;;;5078136;28;20436;-59
2022/07/27 00:17:29;;;;;;;2.10;1.80;;;18.60;54.20;;;;;;5079638;28;20202;-59
2022/07/27 00:19:55;;;;;;;4.30;2.23;;;18.60;54.40;;;;;;5071587;28;20455;-59
2022/07/27 00:22:21;;;;;;;4.53;1.97;;;18.50;54.50;;;;;;5082715;28;20253;-60
2022/07/27 00:24:48;;;;;;;10.27;2.00;;;18.50;54.70;;;;;;5080879;28;20176;-60
2022/07/27 00:27:14;;;;;;;2.13;1.93;;;18.40;55.00;;;;;;5080836;28;20432;-59
2022/07/27 00:29:40;;;;;;;1.80;1.70;;;18.40;55.30;;;;;;5085288;28;20462;-59
2022/07/27 00:32:06;;;;;;;3.03;2.27;;;18.30;55.50;;;;;;5079762;28;20579;-59
2022/07/27 00:34:32;;;;;;;3.40;2.13;;;18.30;55.60;;;;;;5076183;28;20436;-60
2022/07/27 00:36:58;;;;;;;2.50;2.00;;;18.30;55.60;;;;;;5082259;28;20473;-59
2022/07/27 00:39:23;;;;;;;2.70;2.07;;;18.30;55.90;;;;;;5082137;28;20189;-60
2022/07/27 00:41:49;;;;;;;3.50;2.00;;;18.20;55.70;;;;;;5085181;28;20434;-59
2022/07/27 00:44:27;;;;;;;3.20;2.00;;;18.30;55.70;;;;;;5082097;28;20182;-60
2022/07/27 00:46:54;;;;;;;1.93;1.83;;;18.20;55.50;;;;;;5076416;28;20173;-59
2022/07/27 00:49:20;;;;;;;3.80;1.90;;;18.30;55.60;;;;;;5089777;28;20555;-59
2022/07/27 00:51:46;;;;;;;2.43;2.23;;;18.30;55.90;;;;;;5080100;28;20432;-59
2022/07/27 00:54:12;;;;;;;2.27;2.00;;;18.30;55.70;;;;;;5084309;28;20447;-59
2022/07/27 00:56:38;;;;;;;2.87;1.57;;;18.40;56.10;;;;;;5089771;28;20471;-59
2022/07/27 00:59:06;;;;;;;2.90;2.20;;;18.30;56.00;;;;;;5085786;28;20194;-59
2022/07/27 01:01:32;;;;;;;2.37;1.90;;;18.40;55.80;;;;;;5090114;28;20186;-59
2022/07/27 01:03:58;;;;;;;2.30;1.77;;;18.40;56.00;;;;;;5082348;28;20435;-59
2022/07/27 01:06:24;;;;;;;4.37;1.90;;;18.50;56.00;;;;;;5085566;28;20182;-59
2022/07/27 01:08:49;;;;;;;7.30;2.43;;;18.50;56.20;;;;;;5085579;28;20229;-59
2022/07/27 01:11:15;;;;;;;1.80;1.70;;;18.50;56.70;;;;;;5084415;28;20439;-59
2022/07/27 01:13:41;;;;;;;1.70;1.60;;;18.50;56.50;;;;;;5085662;28;20186;-59
2022/07/27 01:16:07;;;;;;;1.90;1.80;;;18.40;56.60;;;;;;5083445;28;20244;-59
2022/07/27 01:18:38;;;;;;;4.23;1.77;;;18.30;56.80;;;;;;5087400;28;20488;-58
2022/07/27 01:21:06;;;;;;;2.03;1.93;;;18.30;57.10;;;;;;5087306;28;20176;-60
2022/07/27 01:23:33;;;;;;;6.50;1.90;;;18.20;56.60;;;;;;5088239;28;20520;-60
2022/07/27 01:26:00;;;;;;;2.53;1.70;;;18.20;56.80;;;;;;5087463;28;21020;-59
2022/07/27 01:28:26;;;;;;;2.00;1.90;;;18.20;57.10;;;;;;5086407;28;20513;-59
2022/07/27 01:30:54;;;;;;;2.90;1.97;;;18.20;57.50;;;;;;5086013;28;20431;-59
2022/07/27 01:33:24;;;;;;;3.87;2.13;;;18.20;57.40;;;;;;5088221;28;20432;-59
2022/07/27 01:35:53;;;;;;;3.53;2.03;;;18.20;57.10;;;;;;5077884;28;20541;-59
2022/07/27 01:38:19;;;;;;;3.07;2.10;;;18.30;57.30;;;;;;5090162;28;20432;-59
2022/07/27 01:40:44;;;;;;;4.23;2.20;;;18.30;57.40;;;;;;5089069;28;20999;-59
2022/07/27 01:43:10;;;;;;;3.20;2.10;;;18.20;57.50;;;;;;5085388;28;20186;-59
2022/07/27 01:45:36;;;;;;;4.70;2.00;;;18.20;57.70;;;;;;5087176;28;20181;-59
2022/07/27 01:48:01;;;;;;;2.33;1.97;;;18.10;58.10;;;;;;5082790;28;20177;-59
2022/07/27 01:50:27;;;;;;;1.80;1.70;;;18.10;58.10;;;;;;5080423;28;20206;-60
2022/07/27 01:52:52;;;;;;;3.87;2.10;;;18.00;58.60;;;;;;5103860;28;20752;-59
2022/07/27 01:55:18;;;;;;;3.73;2.10;;;18.00;58.30;;;;;;5079708;28;20200;-59
2022/07/27 01:57:44;;;;;;;2.37;2.17;;;18.00;58.30;;;;;;5089107;28;20213;-60
2022/07/27 02:00:11;;;;;;;3.57;2.13;;;18.00;58.90;;;;;;5081910;28;20204;-59
2022/07/27 02:02:37;;;;;;;2.20;2.00;;;18.00;58.40;;;;;;5092536;28;20352;-59
2022/07/27 02:05:03;;;;;;;3.70;2.50;;;18.00;58.80;;;;;;5088505;28;20476;-59
2022/07/27 02:07:29;;;;;;;2.13;2.00;;;18.00;58.80;;;;;;5091558;28;20603;-60
2022/07/27 02:09:55;;;;;;;5.90;2.27;;;18.00;58.70;;;;;;5081204;28;20918;-59
2022/07/27 02:12:35;;;;;;;3.73;2.37;;;18.00;58.80;;;;;;5094751;28;20198;-59
2022/07/27 02:15:10;;;;;;;2.00;1.90;;;18.00;58.40;;;;;;5069968;28;20182;-59
2022/07/27 02:17:38;;;;;;;3.10;2.23;;;18.00;58.10;;;;;;5083781;28;20471;-59
2022/07/27 02:20:05;;;;;;;2.63;2.03;;;18.00;57.80;;;;;;5089803;28;20448;-59
2022/07/27 02:22:31;;;;;;;2.23;1.80;;;18.10;57.70;;;;;;5083298;28;20498;-59
2022/07/27 02:24:57;;;;;;;1.87;1.77;;;18.10;57.80;;;;;;5087570;28;21065;-60
2022/07/27 02:27:23;;;;;;;2.30;2.10;;;18.10;57.90;;;;;;5081375;28;20491;-59
2022/07/27 02:29:49;;;;;;;4.30;2.23;;;18.10;57.80;;;;;;5080400;28;20236;-59
2022/07/27 02:32:14;;;;;;;4.93;1.87;;;18.00;58.00;;;;;;5083759;28;20517;-59
2022/07/27 02:34:41;;;;;;;7.50;2.30;;;18.00;58.00;;;;;;5085466;28;20204;-59
2022/07/27 02:37:07;;;;;;;4.53;2.07;;;18.00;57.90;;;;;;5083018;28;20198;-59
2022/07/27 02:39:33;;;;;;;9.73;2.23;;;18.00;57.80;;;;;;5083716;28;20548;-59
2022/07/27 02:41:59;;;;;;;2.60;2.23;;;18.00;58.00;;;;;;5091784;28;20541;-60
2022/07/27 02:44:24;;;;;;;3.07;2.20;;;18.00;58.40;;;;;;5085655;28;20261;-58
2022/07/27 02:46:50;;;;;;;1.97;1.77;;;17.90;58.50;;;;;;5086767;28;20177;-58
2022/07/27 02:49:16;;;;;;;3.73;2.20;;;17.90;58.70;;;;;;5087352;28;20236;-59
2022/07/27 02:51:42;;;;;;;3.20;2.10;;;17.80;58.90;;;;;;5094041;28;20181;-60
2022/07/27 02:54:08;;;;;;;8.10;2.57;;;17.80;59.30;;;;;;5088957;28;20236;-59
2022/07/27 02:56:33;;;;;;;3.23;1.80;;;17.70;59.50;;;;;;5099128;28;20204;-59
2022/07/27 02:58:59;;;;;;;4.40;1.90;;;17.70;59.70;;;;;;5090842;28;20194;-59
2022/07/27 03:01:24;;;;;;;3.73;2.27;;;17.60;60.10;;;;;;5084215;28;20208;-59
2022/07/27 03:03:50;;;;;;;3.97;2.30;;;17.60;60.60;;;;;;5086447;28;20173;-59
2022/07/27 03:06:16;;;;;;;5.23;2.47;;;17.50;61.00;;;;;;5087158;28;20178;-60
2022/07/27 03:08:42;;;;;;;2.43;2.23;;;17.50;61.10;;;;;;5083384;28;20455;-59
2022/07/27 03:11:08;;;;;;;6.47;2.10;;;17.50;61.30;;;;;;5080944;28;20182;-59
2022/07/27 03:13:34;;;;;;;4.63;2.30;;;17.40;61.50;;;;;;5087420;28;20186;-59
2022/07/27 03:16:00;;;;;;;4.00;2.23;;;17.40;61.80;;;;;;5074889;28;20880;-60
2022/07/27 03:18:25;;;;;;;5.43;2.60;;;17.30;62.20;;;;;;5076621;28;20184;-59
2022/07/27 03:20:51;;;;;;;6.10;2.97;;;17.20;62.30;;;;;;5083875;28;20197;-59
2022/07/27 03:23:17;;;;;;;3.23;2.47;;;17.20;62.60;;;;;;5078259;28;20275;-60
2022/07/27 03:25:43;;;;;;;5.47;2.40;;;17.10;62.80;;;;;;5091221;28;20227;-60
2022/07/27 03:28:08;;;;;;;7.03;2.20;;;17.00;62.90;;;;;;5080118;28;20443;-59
2022/07/27 03:30:34;;;;;;;2.77;2.33;;;17.00;63.30;;;;;;5078844;28;20543;-60
2022/07/27 03:33:00;;;;;;;4.17;1.90;;;17.00;63.60;;;;;;5088588;28;20551;-60
2022/07/27 03:35:26;;;;;;;2.70;2.50;;;16.90;64.20;;;;;;5090414;28;20266;-60
2022/07/27 03:37:51;;;;;;;2.67;2.33;;;16.90;64.80;;;;;;5076091;28;20190;-59
2022/07/27 03:40:17;;;;;;;3.70;2.30;;;16.80;65.40;;;;;;5087523;28;20193;-59
2022/07/27 03:42:43;;;;;;;5.43;2.63;;;16.70;66.10;;;;;;5077979;28;20212;-60
2022/07/27 03:45:09;;;;;;;4.93;2.27;;;16.70;66.60;;;;;;5086030;28;20208;-59
2022/07/27 03:47:35;;;;;;;2.60;2.40;;;16.70;66.90;;;;;;5082283;28;20178;-59
2022/07/27 03:50:00;;;;;;;4.43;2.40;;;16.60;67.00;;;;;;5076440;28;20221;-59
2022/07/27 03:52:26;;;;;;;3.43;2.40;;;16.60;67.70;;;;;;5082065;28;21488;-60
2022/07/27 03:54:51;;;;;;;4.87;2.33;;;16.50;67.90;;;;;;5073058;28;20182;-61
2022/07/27 03:57:17;;;;;;;3.00;2.33;;;16.50;68.50;;;;;;5073481;28;20220;-60
2022/07/27 03:59:43;;;;;;;2.30;2.10;;;16.40;69.30;;;;;;5079925;28;20198;-59
2022/07/27 04:02:08;;;;;;;2.73;2.23;;;16.40;70.20;;;;;;5079265;28;20225;-57
2022/07/27 04:04:34;;;;;;;3.90;2.73;;;16.40;70.20;;;;;;5071432;28;20244;-54
2022/07/27 04:07:00;;;;;;;2.60;2.40;;;16.30;70.90;;;;;;5072349;28;20763;-58
2022/07/27 04:09:25;;;;;;;7.73;2.70;;;16.30;70.70;;;;;;5074095;28;20201;-59
2022/07/27 04:11:51;;;;;;;14.17;3.20;;;16.40;71.00;;;;;;5082597;28;20178;-59
2022/07/27 04:14:17;;;;;;;7.53;3.40;;;16.40;71.80;;;;;;5077312;28;20182;-59
2022/07/27 04:16:42;;;;;;;6.33;2.87;;;16.40;71.30;;;;;;5074120;28;20210;-61
2022/07/27 04:19:08;;;;;;;7.23;2.97;;;16.40;71.10;;;;;;5098052;28;20246;-61
2022/07/27 04:21:34;;;;;;;4.20;3.03;;;16.40;71.00;;;;;;5086196;28;20169;-61
2022/07/27 04:24:02;;;;;;;3.73;2.87;;;16.50;70.70;;;;;;5072991;28;20265;-60
2022/07/27 04:26:28;;;;;;;6.60;3.33;;;16.50;70.60;;;;;;5085273;28;20209;-60
2022/07/27 04:28:54;;;;;;;3.60;2.77;;;16.50;69.80;;;;;;5093173;28;20555;-60
2022/07/27 04:31:20;;;;;;;7.90;2.70;;;16.50;70.20;;;;;;5086391;28;20186;-60
2022/07/27 04:33:46;;;;;;;4.77;2.83;;;16.60;69.80;;;;;;5077922;28;20654;-59
2022/07/27 04:36:12;;;;;;;4.80;3.07;;;16.60;71.20;;;;;;5078612;28;20461;-59
2022/07/27 04:38:38;;;;;;;3.50;2.73;;;16.70;72.00;;;;;;5076878;28;20209;-60
2022/07/27 04:41:03;;;;;;;4.90;2.77;;;16.70;71.80;;;;;;5080922;28;20496;-60
2022/07/27 04:43:29;;;;;;;11.13;3.53;;;16.80;72.20;;;;;;5081792;28;20182;-59
2022/07/27 04:45:55;;;;;;;8.70;3.30;;;16.80;70.70;;;;;;5071185;28;20182;-59
2022/07/27 04:48:20;;;;;;;5.03;3.33;;;16.90;70.70;;;;;;5070088;28;20768;-59
2022/07/27 04:50:46;;;;;;;12.90;3.00;;;17.00;70.30;;;;;;5071415;28;20188;-58
2022/07/27 04:53:13;;;;;;;11.63;3.57;;;17.00;68.90;;;;;;5083136;28;20238;-60
2022/07/27 04:55:43;;;;;;;10.03;4.23;;;17.00;69.70;;;;;;5086698;28;20603;-61
2022/07/27 04:58:09;;;;;;;6.13;3.57;;;17.10;70.30;;;;;;5073980;28;20785;-60
2022/07/27 05:00:35;;;;;;;7.73;4.10;;;17.10;70.00;;;;;;5072918;28;20443;-59
2022/07/27 05:03:01;;;;;;;13.10;3.67;;;17.20;70.30;;;;;;5084652;28;20426;-59
2022/07/27 05:05:27;;;;;;;11.83;4.00;;;17.20;70.60;;;;;;5079538;28;20427;-59
2022/07/27 05:07:53;;;;;;;12.27;4.30;;;17.30;70.50;;;;;;5068442;28;20193;-59
2022/07/27 05:10:19;;;;;;;9.70;4.37;;;17.40;70.20;;;;;;5075555;28;20282;-59
2022/07/27 05:12:45;;;;;;;3.43;3.13;;;17.40;70.90;;;;;;5084313;28;20424;-59
2022/07/27 05:15:10;;;;;;;10.53;3.30;;;17.40;70.20;;;;;;5076750;28;20434;-60
2022/07/27 05:17:36;;;;;;;4.70;3.27;;;17.40;69.70;;;;;;5083694;28;20208;-58
2022/07/27 05:20:03;;;;;;;7.30;3.00;;;17.30;70.80;;;;;;5082011;28;20216;-59
2022/07/27 05:22:28;;;;;;;3.43;3.13;;;17.30;70.80;;;;;;5080466;28;20186;-58
2022/07/27 05:24:54;;;;;;;5.00;3.10;;;17.20;70.60;;;;;;5088665;28;20423;-59
2022/07/27 05:27:19;;;;;;;4.00;3.10;;;17.20;70.40;;;;;;5084854;28;20715;-59
2022/07/27 05:29:45;;;;;;;4.90;3.63;;;17.20;70.30;;;;;;5074783;28;20201;-59
2022/07/27 05:32:11;;;;;;;9.20;3.67;;;17.10;70.50;;;;;;5085753;28;20589;-59
2022/07/27 05:34:36;;;;;;;2.90;2.70;;;17.00;69.90;;;;;;5082242;28;20189;-60
2022/07/27 05:37:02;;;;;;;5.00;3.10;;;16.90;71.40;;;;;;5082973;28;20193;-59
2022/07/27 05:39:28;;;;;;;4.30;3.00;;;16.90;72.80;;;;;;5083129;28;20840;-59
2022/07/27 05:41:54;;;;;;;9.70;3.40;;;16.90;73.20;;;;;;5087949;28;20166;-58
2022/07/27 05:44:19;;;;;;;5.60;3.10;;;17.00;73.20;;;;;;5076439;28;20174;-58
2022/07/27 05:46:45;;;;;;;8.57;3.70;;;17.00;73.00;;;;;;5088901;28;20578;-58
2022/07/27 05:49:10;;;;;;;18.97;3.70;;;17.10;72.00;;;;;;5086347;28;20251;-59
2022/07/27 05:51:37;;;;;;;25.93;4.83;;;17.20;72.70;;;;;;5082275;28;20225;-59
2022/07/27 05:54:03;;;;;;;12.43;3.40;;;17.30;72.60;;;;;;5072711;28;20216;-58
2022/07/27 05:56:29;;;;;;;10.30;3.97;;;17.30;72.90;;;;;;5083713;28;20839;-60
2022/07/27 05:58:55;;;;;;;16.60;4.80;;;17.50;70.40;;;;;;5079556;28;20839;-58
2022/07/27 06:01:21;;;;;;;18.63;4.00;;;17.50;69.30;;;;;;5069847;28;20448;-59
2022/07/27 06:03:46;;;;;;;13.50;3.90;;;17.60;70.10;;;;;;5073292;28;20486;-58
2022/07/27 06:08:56;;;;;;;12.60;4.00;;;17.80;68.20;;;;;;5079034;28;20228;-58
2022/07/27 06:11:22;;;;;;;5.60;3.40;;;17.90;67.90;;;;;;5089626;28;20439;-58
2022/07/27 06:13:49;;;;;;;5.97;3.50;;;18.00;67.90;;;;;;5077964;28;20567;-59
2022/07/27 06:16:15;;;;;;;5.30;3.33;;;18.20;67.80;;;;;;5078782;28;20639;-59
2022/07/27 06:18:40;;;;;;;6.73;3.30;;;18.20;66.20;;;;;;5089451;28;20470;-59
2022/07/27 06:21:06;;;;;;;4.90;3.47;;;18.30;65.20;;;;;;5079447;28;20170;-59
2022/07/27 06:23:32;;;;;;;5.10;3.30;;;18.40;64.70;;;;;;5085565;28;20209;-59
2022/07/27 06:25:58;;;;;;;10.20;4.07;;;18.50;64.10;;;;;;5082805;28;20281;-58
2022/07/27 06:28:23;;;;;;;6.00;3.10;;;18.60;63.70;;;;;;5085638;28;20174;-59
2022/07/27 06:30:49;;;;;;;6.60;3.17;;;18.70;63.10;;;;;;5082600;28;20179;-58
2022/07/27 06:33:15;;;;;;;5.30;3.30;;;18.80;62.70;;;;;;5088178;28;20198;-60
2022/07/27 06:35:41;;;;;;;5.97;3.40;;;18.90;61.80;;;;;;5083640;28;20188;-58
2022/07/27 06:38:07;;;;;;;6.53;2.83;;;19.10;61.90;;;;;;5086147;28;20162;-58
2022/07/27 06:40:34;;;;;;;7.30;3.00;;;19.30;60.40;;;;;;5091130;28;20423;-59
2022/07/27 06:42:59;;;;;;;6.33;3.17;;;19.50;59.90;;;;;;5085319;28;20420;-59
2022/07/27 06:45:25;;;;;;;6.07;3.13;;;19.50;59.20;;;;;;5074484;28;20505;-59
2022/07/27 06:47:51;;;;;;;4.37;3.00;;;19.50;58.70;;;;;;5085262;28;20177;-58
2022/07/27 06:50:19;;;;;;;5.70;3.30;;;19.50;58.50;;;;;;5089718;28;20435;-59
2022/07/27 06:52:45;;;;;;;4.47;3.40;;;19.40;58.90;;;;;;5079454;28;20234;-58
2022/07/27 06:55:11;;;;;;;7.40;3.40;;;19.40;59.70;;;;;;5085039;28;20472;-58
2022/07/27 06:57:37;;;;;;;9.60;4.70;;;19.40;60.40;;;;;;5090314;28;20447;-59
2022/07/27 07:00:04;;;;;;;5.50;3.63;;;19.40;60.40;;;;;;5081565;28;20561;-59
2022/07/27 07:02:29;;;;;;;3.90;2.80;;;19.60;60.30;;;;;;5073326;28;20278;-58
2022/07/27 07:04:55;;;;;;;10.23;3.80;;;19.70;59.10;;;;;;5085400;28;21201;-58
2022/07/27 07:07:21;;;;;;;5.30;3.50;;;19.80;58.90;;;;;;5087508;28;20176;-58
2022/07/27 07:09:47;;;;;;;7.00;3.50;;;20.00;57.90;;;;;;5081994;28;20205;-58
2022/07/27 07:12:12;;;;;;;4.00;3.57;;;20.10;57.60;;;;;;5072483;28;20441;-59
2022/07/27 07:14:38;;;;;;;8.43;3.57;;;20.20;57.20;;;;;;5076053;28;20263;-59
2022/07/27 07:17:04;;;;;;;4.40;3.60;;;20.30;56.80;;;;;;5078871;28;20216;-58
2022/07/27 07:19:30;;;;;;;6.13;3.20;;;20.40;56.80;;;;;;5076425;28;20229;-59
2022/07/27 07:21:55;;;;;;;8.43;3.10;;;20.40;57.10;;;;;;5080384;28;20174;-56
2022/07/27 07:24:21;;;;;;;5.43;3.20;;;20.50;56.70;;;;;;5077023;28;20185;-57
2022/07/27 07:26:46;;;;;;;5.30;3.10;;;20.70;56.80;;;;;;5071206;28;20174;-57
2022/07/27 07:29:12;;;;;;;6.10;3.13;;;20.80;56.40;;;;;;5075292;28;20217;-57
2022/07/27 07:31:38;;;;;;;8.70;3.33;;;20.80;56.20;;;;;;5084823;28;20667;-56
2022/07/27 07:34:04;;;;;;;4.90;2.80;;;21.00;55.50;;;;;;5088428;28;20516;-58
2022/07/27 07:36:30;;;;;;;3.23;2.83;;;21.00;55.10;;;;;;5071543;28;20199;-57
2022/07/27 07:38:55;;;;;;;4.50;3.40;;;21.10;55.10;;;;;;5072002;28;20456;-58
2022/07/27 07:41:22;;;;;;;6.90;2.93;;;21.20;55.10;;;;;;5086867;28;20284;-56
2022/07/27 07:43:49;;;;;;;6.10;2.60;;;21.30;54.60;;;;;;5085783;28;20170;-57
2022/07/27 07:46:15;;;;;;;8.00;2.97;;;21.40;54.20;;;;;;5083789;28;20430;-56
2022/07/27 07:48:42;;;;;;;5.80;3.00;;;21.60;54.00;;;;;;5084405;28;20431;-57
2022/07/27 07:51:08;;;;;;;3.00;2.60;;;21.70;53.70;;;;;;5087091;28;20513;-56
2022/07/27 07:53:33;;;;;;;6.93;3.80;;;21.80;53.30;;;;;;5085827;28;20450;-57
2022/07/27 07:55:59;;;;;;;4.77;2.80;;;21.80;52.60;;;;;;5074735;28;20563;-56
2022/07/27 07:58:26;;;;;;;5.83;3.50;;;21.90;52.90;;;;;;5075102;28;20178;-57
2022/07/27 08:00:51;;;;;;;12.70;3.70;;;21.90;52.00;;;;;;5087192;28;20203;-57
2022/07/27 08:03:17;;;;;;;7.07;3.50;;;21.80;52.20;;;;;;5077410;28;21154;-56
2022/07/27 08:05:43;;;;;;;4.43;3.03;;;21.80;52.90;;;;;;5089143;28;20614;-57
2022/07/27 08:08:09;;;;;;;4.80;3.50;;;21.70;52.80;;;;;;5092472;28;20455;-56
2022/07/27 08:10:35;;;;;;;7.50;3.30;;;21.70;52.70;;;;;;5086935;28;20208;-58
2022/07/27 08:13:00;;;;;;;4.53;2.90;;;21.70;52.90;;;;;;5090385;28;20208;-57
2022/07/27 08:15:27;;;;;;;3.10;2.77;;;21.70;52.70;;;;;;5088790;28;20419;-57
2022/07/27 08:17:52;;;;;;;7.40;3.13;;;21.80;52.20;;;;;;5079221;28;20225;-57
2022/07/27 08:20:18;;;;;;;7.77;3.00;;;21.70;51.60;;;;;;5083630;28;20999;-56
2022/07/27 08:22:44;;;;;;;5.57;3.00;;;21.70;52.40;;;;;;5082650;28;21136;-57
2022/07/27 08:25:11;;;;;;;3.30;2.90;;;21.70;52.30;;;;;;5077344;28;21061;-57
2022/07/27 08:27:37;;;;;;;9.47;2.67;;;21.70;52.00;;;;;;5076931;28;20205;-57
2022/07/27 08:30:04;;;;;;;5.40;2.97;;;21.70;50.40;;;;;;5080648;28;20440;-55
2022/07/27 08:32:30;;;;;;;6.37;3.57;;;21.80;51.30;;;;;;5069989;28;21074;-58
2022/07/27 08:34:56;;;;;;;4.93;3.40;;;21.80;50.90;;;;;;5074501;28;20433;-57
2022/07/27 08:37:22;;;;;;;4.47;3.10;;;21.90;51.50;;;;;;5086594;28;20275;-57
2022/07/27 08:39:47;;;;;;;3.17;2.97;;;22.10;51.50;;;;;;5088127;28;20226;-57
2022/07/27 08:42:15;;;;;;;3.67;2.47;;;22.20;51.20;;;;;;5089441;28;20174;-57
2022/07/27 08:44:41;;;;;;;7.90;2.80;;;22.30;49.80;;;;;;5088091;28;20820;-58
2022/07/27 08:47:12;;;;;;;9.03;2.77;;;22.20;49.80;;;;;;5086659;28;20527;-56
2022/07/27 08:49:40;;;;;;;5.43;2.70;;;22.20;49.90;;;;;;5069785;28;20452;-57
2022/07/27 08:52:08;;;;;;;6.10;2.87;;;22.30;49.10;;;;;;5086598;28;20461;-57
2022/07/27 08:54:36;;;;;;;7.83;2.80;;;22.30;50.00;;;;;;5089401;28;20439;-57
2022/07/27 08:57:02;;;;;;;3.57;2.27;;;22.50;49.90;;;;;;5091640;28;20464;-57
2022/07/27 08:59:28;;;;;;;4.00;3.10;;;22.70;49.60;;;;;;5089568;28;20447;-58
2022/07/27 09:01:53;;;;;;;9.33;2.70;;;22.90;49.60;;;;;;5090218;28;20182;-57
2022/07/27 09:04:19;;;;;;;3.30;2.50;;;23.10;49.40;;;;;;5088251;28;20197;-57
2022/07/27 09:06:49;;;;;;;6.80;2.63;;;23.20;47.80;;;;;;5082405;28;20173;-57
2022/07/27 09:09:18;;;;;;;2.90;2.60;;;23.00;46.70;;;;;;5090089;28;20198;-56
2022/07/27 09:12:10;;;;;;;4.40;2.70;;;22.80;47.30;;;;;;5090730;28;20956;-57
2022/07/27 09:14:37;;;;;;;6.63;2.60;;;22.70;48.40;;;;;;5089875;28;20483;-57
2022/07/27 09:17:26;;;;;;;6.00;2.90;;;22.80;49.10;;;;;;5088224;28;20558;-57
2022/07/27 09:19:57;;;;;;;5.03;2.63;;;23.10;49.40;;;;;;5090346;28;20428;-57
2022/07/27 09:22:39;;;;;;;3.90;2.90;;;23.40;49.10;;;;;;5087970;28;20416;-57
2022/07/27 09:25:05;;;;;;;3.40;2.60;;;23.90;48.80;;;;;;5069911;28;20428;-58
2022/07/27 09:27:31;;;;;;;3.37;2.50;;;24.10;47.80;;;;;;5071150;28;20508;-57
2022/07/27 09:30:11;;;;;;;2.73;2.50;;;24.10;47.50;;;;;;5082624;28;20538;-57
2022/07/27 09:32:37;;;;;;;2.73;2.53;;;24.20;46.90;;;;;;5085409;28;20185;-57
2022/07/27 09:35:23;;;;;;;3.73;2.50;;;24.30;47.20;;;;;;5089651;28;20402;-57
2022/07/27 09:37:49;;;;;;;3.60;2.40;;;24.50;47.10;;;;;;5081987;28;20855;-58
2022/07/27 09:40:18;;;;;;;10.23;2.83;;;24.60;46.70;;;;;;5090475;28;20450;-58
2022/07/27 09:42:44;;;;;;;7.83;2.83;;;24.50;46.30;;;;;;5086373;28;20430;-57
2022/07/27 09:45:33;;;;;;;4.47;2.50;;;24.40;46.60;;;;;;5085636;28;20420;-57
2022/07/27 09:48:11;;;;;;;5.43;2.80;;;24.30;45.90;;;;;;5093028;28;20445;-58
2022/07/27 09:50:42;;;;;;;5.83;4.03;;;24.00;45.80;;;;;;5085484;28;20427;-58
2022/07/27 09:53:20;;;;;;;6.50;2.90;;;23.80;46.30;;;;;;5082048;28;20519;-57
2022/07/27 09:56:03;;;;;;;2.87;2.67;;;23.90;46.60;;;;;;5093423;28;20777;-56
2022/07/27 09:58:55;;;;;;;4.10;2.83;;;23.90;46.50;;;;;;5088095;28;20416;-57
2022/07/27 10:01:26;;;;;;;4.00;2.70;;;23.90;46.10;;;;;;5091762;28;20443;-57
2022/07/27 10:03:55;;;;;;;2.97;2.73;;;23.90;46.50;;;;;;5093579;28;20422;-57
2022/07/27 10:06:22;;;;;;;5.47;3.43;;;23.80;45.80;;;;;;5093875;28;20472;-57
2022/07/27 10:08:50;;;;;;;5.57;3.20;;;23.60;45.90;;;;;;5079851;28;20469;-58
2022/07/27 10:11:16;;;;;;;3.60;2.90;;;23.50;46.60;;;;;;5076193;28;20435;-57
2022/07/27 10:13:43;;;;;;;5.30;2.53;;;23.60;47.30;;;;;;5082735;28;20433;-57
2022/07/27 10:16:15;;;;;;;6.83;3.00;;;23.80;47.30;;;;;;5083430;28;20935;-57
2022/07/27 10:18:55;;;;;;;4.47;2.70;;;23.90;47.00;;;;;;5084495;28;20424;-57
2022/07/27 10:21:23;;;;;;;5.90;2.80;;;24.00;46.60;;;;;;5081555;28;20972;-57
2022/07/27 10:24:05;;;;;;;4.03;2.77;;;24.00;46.80;;;;;;5083528;28;20428;-56
2022/07/27 10:26:43;;;;;;;8.33;3.03;;;24.30;46.40;;;;;;5083839;28;20425;-57
2022/07/27 10:29:12;;;;;;;4.40;2.50;;;24.50;46.60;;;;;;5080266;28;20444;-57
2022/07/27 10:31:43;;;;;;;3.13;2.83;;;24.90;46.50;;;;;;5077810;28;20436;-57
2022/07/27 10:34:12;;;;;;;6.90;2.83;;;25.30;45.70;;;;;;5079772;28;20434;-57
2022/07/27 10:36:52;;;;;;;8.60;2.90;;;25.50;44.70;;;;;;5078264;28;20984;-57
2022/07/27 10:39:33;;;;;;;2.80;2.50;;;25.60;43.60;;;;;;5077360;28;20470;-57
2022/07/27 10:42:25;;;;;;;3.63;2.70;;;25.60;43.10;;;;;;5081624;28;20435;-57
2022/07/27 10:45:03;;;;;;;2.70;2.33;;;25.70;43.30;;;;;;5075132;28;20476;-56
2022/07/27 10:47:46;;;;;;;3.50;2.90;;;25.80;43.10;;;;;;5080954;28;20515;-57
2022/07/27 10:50:14;;;;;;;3.97;2.60;;;26.00;43.00;;;;;;5075910;28;20444;-57
2022/07/27 10:52:41;;;;;;;6.17;3.00;;;26.20;43.50;;;;;;5080135;28;20957;-57
2022/07/27 10:55:28;;;;;;;3.63;2.33;;;26.50;43.50;;;;;;5081634;28;20952;-57
2022/07/27 10:57:55;;;;;;;2.93;2.23;;;26.80;43.20;;;;;;5072631;28;20549;-57
2022/07/27 11:00:49;;;;;;;3.80;2.60;;;26.90;41.30;;;;;;5077312;28;20455;-58
2022/07/27 11:03:20;;;;;;;3.60;1.90;;;26.90;41.10;;;;;;5076469;28;20504;-57
2022/07/27 11:05:55;;;;;;;3.47;2.67;;;26.90;41.00;;;;;;5078127;28;20507;-57
2022/07/27 11:08:35;;;;;;;5.37;2.50;;;26.70;40.70;;;;;;5082599;28;20404;-57
2022/07/27 11:11:01;;;;;;;3.63;2.77;;;26.60;41.00;;;;;;5080556;28;20455;-57
2022/07/27 11:13:28;;;;;;;5.87;3.43;;;26.50;41.00;;;;;;5081097;28;20427;-57
2022/07/27 11:15:57;;;;;;;3.30;2.60;;;26.70;41.60;;;;;;5077295;28;20428;-57
2022/07/27 11:18:26;;;;;;;2.37;2.13;;;26.90;40.30;;;;;;5077935;28;20424;-57
2022/07/27 11:20:52;;;;;;;3.03;2.23;;;27.00;38.70;;;;;;5077794;28;20447;-57
2022/07/27 11:23:19;;;;;;;2.70;2.40;;;27.20;39.50;;;;;;5074841;28;20459;-57
2022/07/27 11:26:00;;;;;;;3.30;2.47;;;27.20;38.60;;;;;;5072968;28;20267;-58
2022/07/27 11:28:30;;;;;;;4.97;2.43;;;27.30;37.90;;;;;;5076289;28;20494;-56
2022/07/27 11:30:56;;;;;;;5.80;2.40;;;27.40;38.60;;;;;;5075836;28;20952;-57
2022/07/27 11:33:22;;;;;;;3.10;2.27;;;27.70;39.10;;;;;;5075746;28;20215;-60
2022/07/27 11:35:56;;;;;;;5.17;2.80;;;28.00;39.00;;;;;;5071923;28;20177;-60
2022/07/27 11:38:22;;;;;;;3.33;2.47;;;28.20;38.20;;;;;;5078455;28;20261;-60
2022/07/27 11:40:50;;;;;;;3.07;2.17;;;28.20;38.00;;;;;;5074470;28;20261;-60
2022/07/27 11:43:41;;;;;;;3.60;2.07;;;28.00;38.00;;;;;;5075694;28;20173;-60
2022/07/27 11:46:27;;;;;;;8.70;2.60;;;27.60;38.00;;;;;;5077745;28;20724;-60
2022/07/27 11:49:05;;;;;;;3.63;2.80;;;27.50;38.20;;;;;;5076709;28;20197;-60
2022/07/27 11:51:35;;;;;;;4.87;2.60;;;27.10;37.30;;;;;;5074599;28;20180;-59
2022/07/27 11:54:09;;;;;;;4.00;2.40;;;26.70;38.00;;;;;;5075372;28;20176;-60
2022/07/27 11:56:38;;;;;;;9.50;2.83;;;26.40;38.90;;;;;;5077450;28;20585;-60
2022/07/27 11:59:15;;;;;;;2.77;2.50;;;26.10;39.80;;;;;;5076671;28;20281;-60
2022/07/27 12:01:41;;;;;;;8.73;2.17;;;25.80;39.90;;;;;;5075848;28;20443;-60
2022/07/27 12:04:12;;;;;;;4.60;2.37;;;25.50;40.20;;;;;;5077631;28;20430;-60
2022/07/27 12:06:41;;;;;;;2.60;2.00;;;25.30;41.10;;;;;;5073819;28;20174;-59
2022/07/27 12:09:09;;;;;;;2.27;2.00;;;25.10;41.10;;;;;;5076699;28;20438;-60
2022/07/27 12:11:55;;;;;;;4.43;2.00;;;25.20;41.00;;;;;;5076904;28;20431;-60
2022/07/27 12:14:31;;;;;;;3.93;1.80;;;25.70;41.20;;;;;;5079035;28;20420;-60
2022/07/27 12:17:17;;;;;;;2.93;2.00;;;26.10;40.70;;;;;;5077596;28;20819;-60
2022/07/27 12:19:55;;;;;;;5.50;2.43;;;26.70;40.80;;;;;;5072518;28;20971;-60
2022/07/27 12:22:33;;;;;;;3.50;2.07;;;27.00;39.60;;;;;;5074856;28;20424;-60
2022/07/27 12:25:06;;;;;;;2.23;2.07;;;27.10;39.30;;;;;;5076381;28;20461;-60
2022/07/27 12:27:32;;;;;;;8.27;2.23;;;27.20;38.40;;;;;;5072045;28;20436;-60
2022/07/27 12:30:01;;;;;;;3.03;1.80;;;27.10;38.60;;;;;;5075286;28;20535;-59
2022/07/27 12:32:29;;;;;;;3.93;2.60;;;27.00;39.80;;;;;;5067113;28;20438;-60
2022/07/27 12:34:54;;;;;;;3.20;2.37;;;27.10;39.20;;;;;;5067936;28;20456;-60
2022/07/27 12:37:21;;;;;;;3.23;2.03;;;27.20;38.90;;;;;;5073494;28;20459;-61
2022/07/27 12:39:49;;;;;;;4.43;2.20;;;27.10;38.50;;;;;;5071629;28;20193;-61
2022/07/27 12:42:15;;;;;;;2.73;2.10;;;26.90;37.70;;;;;;5074017;28;20424;-60
2022/07/27 12:44:43;;;;;;;2.40;2.20;;;26.70;38.10;;;;;;5071324;28;20464;-60
2022/07/27 12:50:02;;;;;;;3.47;2.30;;;26.30;39.10;;;;;;5076449;28;21220;-61
2022/07/27 12:52:28;;;;;;;6.37;1.83;;;26.30;39.80;;;;;;5075023;28;20439;-61
2022/07/27 12:54:54;;;;;;;2.97;2.43;;;26.70;38.90;;;;;;5073807;28;20443;-60